Time;durP1;ratioP1;P1;durP2;ratioP2;P2;SDS_P1;SDS_P2;PMS_P1;PMS_P2;Temp;Humidity;BMP_temperature;BMP_pressure;BME280_temperature;BME280_humidity;BME280_pressure;Samples;Min_cycle;Max_cycle;Signal;HPM_P1;HPM_P2
2021/07/04 00:07:55;;;;;;;10.80;5.80;;;;;;;18.17;69.94;100246.77;22889908;75;99662;-87
2021/07/04 00:37:56;;;;;;;10.28;5.92;;;;;;;18.10;70.47;100241.34;22861914;75;99927;-87
2021/07/04 01:07:57;;;;;;;11.00;6.12;;;;;;;18.10;71.05;100228.80;22952888;75;99733;-87
2021/07/04 01:37:58;;;;;;;11.50;6.60;;;;;;;18.10;71.61;100220.45;22949431;75;99668;-87
2021/07/04 02:07:59;;;;;;;8.33;5.30;;;;;;;17.92;72.23;100217.28;22714684;75;99655;-87
2021/07/04 02:38:01;;;;;;;15.68;6.40;;;;;;;17.44;73.92;100212.94;22577125;77;99450;-87
2021/07/04 03:08:04;;;;;;;10.65;6.45;;;;;;;17.18;75.82;100226.95;22598753;76;99535;-87
2021/07/04 03:38:05;;;;;;;11.15;7.15;;;;;;;16.93;76.56;100229.39;22666220;76;99767;-88
2021/07/04 04:08:06;;;;;;;;;;;;;;;16.62;77.78;100252.35;22853464;75;99751;-87
2021/07/04 04:38:07;;;;;;;15.10;10.18;;;;;;;16.87;79.04;100258.30;22928645;76;85661;-86
2021/07/04 05:08:08;;;;;;;14.90;8.65;;;;;;;17.34;80.08;100256.25;22914984;76;99806;-87
2021/07/04 05:38:17;;;;;;;11.30;5.75;;;;;;;18.21;79.38;100262.77;22803535;75;99693;-85
2021/07/04 06:08:12;;;;;;;9.18;5.20;;;;;;;21.61;75.96;100259.15;22918014;75;99616;-85
2021/07/04 06:38:13;;;;;;;7.03;4.12;;;;;;;24.74;67.43;100247.28;23007448;75;99458;-85
2021/07/04 07:08:14;;;;;;;8.20;5.22;;;;;;;25.88;60.60;100248.11;22750269;75;99514;-86
2021/07/04 07:38:15;;;;;;;7.15;3.98;;;;;;;26.17;59.00;100226.20;22584564;77;99540;-85
2021/07/04 08:08:16;;;;;;;8.53;4.00;;;;;;;27.75;54.82;100217.59;22564436;76;99537;-85
2021/07/04 08:38:17;;;;;;;9.90;3.90;;;;;;;29.43;52.08;100185.13;22635755;76;99431;-84
2021/07/04 09:08:21;;;;;;;6.55;3.65;;;;;;;31.61;47.29;100190.98;22767610;76;99542;-87
2021/07/04 09:38:25;;;;;;;8.10;3.60;;;;;;;32.06;43.17;100187.98;22985627;75;99335;-88
2021/07/04 10:08:35;;;;;;;6.33;4.20;;;;;;;31.32;42.85;100186.00;23017590;75;99575;-88
2021/07/04 10:38:58;;;;;;;6.95;3.92;;;;;;;31.12;42.77;100147.94;23010084;75;99512;-87
2021/07/04 11:08:59;;;;;;;6.90;3.47;;;;;;;31.69;42.40;100125.11;22980780;75;99270;-87
2021/07/04 11:39:11;;;;;;;9.25;4.10;;;;;;;33.70;40.00;100084.64;22995722;75;100712;-87
2021/07/04 12:09:11;;;;;;;6.25;3.83;;;;;;;33.58;38.19;100071.88;22877294;76;99611;-87
2021/07/04 12:39:12;;;;;;;6.55;3.98;;;;;;;32.33;38.92;100049.48;22898409;75;99448;-86
2021/07/04 13:09:24;;;;;;;7.85;3.90;;;;;;;32.83;39.47;100023.98;22895914;75;99285;-88
2021/07/04 13:39:25;;;;;;;6.00;3.52;;;;;;;32.30;39.03;99987.23;22937083;76;99366;-87
2021/07/04 14:09:26;;;;;;;5.17;3.50;;;;;;;32.05;38.40;99958.66;22895298;75;99225;-88
2021/07/04 14:39:27;;;;;;;5.23;2.90;;;;;;;31.66;37.68;99936.93;22903148;75;99886;-90
2021/07/04 15:09:29;;;;;;;6.83;3.25;;;;;;;31.56;37.92;99920.76;22938672;75;99279;-89
2021/07/04 15:39:30;;;;;;;5.87;3.22;;;;;;;31.29;38.52;99904.73;22961267;75;99104;-90
2021/07/04 16:09:32;;;;;;;5.40;3.27;;;;;;;31.08;39.50;99898.70;22761101;75;99189;-90
2021/07/04 16:39:33;;;;;;;5.58;3.30;;;;;;;29.79;40.29;99899.83;22548585;77;99360;-90
2021/07/04 17:09:34;;;;;;;5.92;3.95;;;;;;;28.33;42.29;99880.27;22811375;75;99268;-90
2021/07/04 17:39:35;;;;;;;5.65;3.20;;;;;;;27.85;43.16;99879.59;23087257;75;99272;-89
2021/07/04 18:09:36;;;;;;;8.65;3.50;;;;;;;26.45;44.88;99889.54;23037063;75;99314;-90
2021/07/04 18:39:37;;;;;;;6.92;3.55;;;;;;;25.78;47.94;99900.52;22966140;76;99076;-90
2021/07/04 19:09:39;;;;;;;8.75;4.28;;;;;;;25.10;50.08;99894.39;22829708;75;99455;-90
2021/07/04 19:39:42;;;;;;;8.60;5.15;;;;;;;24.20;52.98;99905.16;22622651;76;99337;-90
2021/07/04 20:09:43;;;;;;;8.83;4.83;;;;;;;23.09;56.07;99920.80;22729261;76;98985;-89
2021/07/04 20:39:44;;;;;;;10.60;5.65;;;;;;;22.14;59.11;99904.78;22975898;75;99159;-89
2021/07/04 21:09:45;;;;;;;12.07;6.72;;;;;;;21.42;61.69;99908.09;22960269;76;99373;-89
2021/07/04 21:39:46;;;;;;;11.08;7.25;;;;;;;20.50;64.26;99910.88;22970294;75;99305;-90
2021/07/04 22:09:47;;;;;;;12.78;8.28;;;;;;;20.14;65.99;99921.81;22785817;75;99383;-89
2021/07/04 22:39:48;;;;;;;12.60;7.45;;;;;;;20.04;67.66;99920.74;22594786;76;99394;-90
2021/07/04 23:09:49;;;;;;;9.27;6.43;;;;;;;19.93;68.47;99924.52;22680177;76;99484;-89
2021/07/04 23:39:50;;;;;;;10.60;7.00;;;;;;;19.67;70.22;99916.84;22929511;76;99090;-90
